createdAt,value
2018-12-31T00:01:24.183Z,4.99
2018-12-31T00:03:51.819Z,4.95
2018-12-31T00:06:19.449Z,4.90
2018-12-31T00:08:47.373Z,4.94
2018-12-31T00:11:15.001Z,4.86
2018-12-31T00:13:42.904Z,4.88
2018-12-31T00:16:10.875Z,4.91
2018-12-31T00:18:38.581Z,4.91
2018-12-31T00:21:06.216Z,4.95
2018-12-31T00:23:33.852Z,4.95
2018-12-31T00:26:01.730Z,4.94
2018-12-31T00:28:29.355Z,4.86
2018-12-31T00:30:56.987Z,4.81
2018-12-31T00:33:24.607Z,4.79
2018-12-31T00:35:52.255Z,4.75
2018-12-31T00:38:20.144Z,4.73
2018-12-31T00:40:48.113Z,4.65
2018-12-31T00:43:15.729Z,4.65
2018-12-31T00:45:43.747Z,4.67
2018-12-31T00:48:11.715Z,4.67
2018-12-31T00:50:39.353Z,4.72
2018-12-31T00:53:06.978Z,4.74
2018-12-31T00:55:35.001Z,4.68
2018-12-31T00:58:02.983Z,4.70
2018-12-31T01:00:30.619Z,4.79
2018-12-31T01:02:58.509Z,4.78
2018-12-31T01:05:26.476Z,4.73
2018-12-31T01:07:54.550Z,4.75
2018-12-31T01:10:22.187Z,4.65
2018-12-31T01:12:49.820Z,4.69
2018-12-31T01:15:17.738Z,4.67
2018-12-31T01:17:45.712Z,4.69
2018-12-31T01:20:13.336Z,4.68
2018-12-31T01:22:41.247Z,4.70
2018-12-31T01:25:09.211Z,4.68
2018-12-31T01:27:37.180Z,4.74
2018-12-31T01:30:04.816Z,4.76
2018-12-31T01:32:32.713Z,4.80
2018-12-31T01:35:00.681Z,4.79
2018-12-31T01:37:28.665Z,4.75
2018-12-31T01:39:56.307Z,4.78
2018-12-31T01:42:24.285Z,4.75
2018-12-31T01:44:51.919Z,4.78
2018-12-31T01:47:19.541Z,4.81
2018-12-31T01:49:47.492Z,4.82
2018-12-31T01:52:15.120Z,4.76
2018-12-31T01:54:43.101Z,4.84
2018-12-31T01:57:10.729Z,4.82
2018-12-31T01:59:38.635Z,4.81
2018-12-31T02:02:06.606Z,4.76
2018-12-31T02:04:34.583Z,4.73
2018-12-31T02:07:02.454Z,4.72
2018-12-31T02:09:30.412Z,4.67
2018-12-31T02:11:58.378Z,4.72
2018-12-31T02:14:26.348Z,4.73
2018-12-31T02:16:54.322Z,4.71
2018-12-31T02:19:22.285Z,4.73
2018-12-31T02:21:50.259Z,4.76
2018-12-31T02:24:18.233Z,4.75
2018-12-31T02:26:46.197Z,4.73
2018-12-31T02:29:14.274Z,4.77
2018-12-31T02:31:42.238Z,4.79
2018-12-31T02:34:09.863Z,4.74
2018-12-31T02:36:37.785Z,4.75
2018-12-31T02:39:05.740Z,4.79
2018-12-31T02:41:33.376Z,4.80
2018-12-31T02:44:01.278Z,4.78
2018-12-31T02:46:29.236Z,4.74
2018-12-31T02:48:56.880Z,4.74
2018-12-31T02:51:24.492Z,4.72
2018-12-31T02:53:52.430Z,4.74
2018-12-31T02:56:20.402Z,4.83
2018-12-31T02:58:48.372Z,4.74
2018-12-31T03:01:16.338Z,4.76
2018-12-31T03:03:43.968Z,4.77
2018-12-31T03:06:11.600Z,4.77
2018-12-31T03:08:39.535Z,4.74
2018-12-31T03:11:07.521Z,4.68
2018-12-31T03:13:35.471Z,4.68
2018-12-31T03:16:03.107Z,4.69
2018-12-31T03:18:31.000Z,4.71
2018-12-31T03:20:58.636Z,4.72
2018-12-31T03:23:26.541Z,4.67
2018-12-31T03:25:54.499Z,4.70
2018-12-31T03:28:22.489Z,4.73
2018-12-31T03:30:50.463Z,4.69
2018-12-31T03:33:18.083Z,4.72
2018-12-31T03:35:45.969Z,4.73
2018-12-31T03:38:13.586Z,4.73
2018-12-31T03:40:41.224Z,4.74
2018-12-31T03:43:08.848Z,4.73
2018-12-31T03:45:36.829Z,4.67
2018-12-31T03:48:04.794Z,4.71
2018-12-31T03:50:32.764Z,4.64
2018-12-31T03:53:00.398Z,4.72
2018-12-31T03:55:28.036Z,4.70
2018-12-31T03:57:55.956Z,4.70
2018-12-31T04:00:23.570Z,4.71
2018-12-31T04:02:51.481Z,4.67
2018-12-31T04:05:19.462Z,4.71
2018-12-31T04:07:53.045Z,4.70
2018-12-31T04:10:16.424Z,4.79
2018-12-31T04:12:44.395Z,4.72
2018-12-31T04:15:12.383Z,4.73
2018-12-31T04:17:39.999Z,4.74
2018-12-31T04:20:07.890Z,4.65
2018-12-31T04:22:35.519Z,4.65
2018-12-31T04:25:03.433Z,4.76
2018-12-31T04:27:31.389Z,4.70
2018-12-31T04:29:59.088Z,4.67
2018-12-31T04:32:27.042Z,4.67
2018-12-31T04:34:54.986Z,4.75
2018-12-31T04:37:22.954Z,4.71
2018-12-31T04:39:50.930Z,4.71
2018-12-31T04:42:18.567Z,4.75
2018-12-31T04:44:46.453Z,4.75
2018-12-31T04:47:14.437Z,4.70
2018-12-31T04:49:42.046Z,4.70
2018-12-31T04:52:09.682Z,4.75
2018-12-31T04:54:37.614Z,4.71
2018-12-31T04:57:05.592Z,4.74
2018-12-31T04:59:33.294Z,4.74
2018-12-31T05:02:01.221Z,4.76
2018-12-31T05:04:28.843Z,4.76
2018-12-31T05:06:56.852Z,4.82
2018-12-31T05:09:24.475Z,4.76
2018-12-31T05:11:52.112Z,4.82
2018-12-31T05:14:20.046Z,4.82
2018-12-31T05:16:47.686Z,4.85
2018-12-31T05:19:15.319Z,4.82
2018-12-31T05:21:42.947Z,4.87
2018-12-31T05:24:10.898Z,4.84
2018-12-31T05:26:38.868Z,4.81
2018-12-31T05:29:06.840Z,4.87
2018-12-31T05:31:34.811Z,4.81
2018-12-31T05:34:02.715Z,4.81
2018-12-31T05:36:30.645Z,4.90
2018-12-31T05:38:58.611Z,4.89
2018-12-31T05:41:26.234Z,4.84
2018-12-31T05:43:53.868Z,4.86
2018-12-31T05:46:21.495Z,4.86
2018-12-31T05:48:49.112Z,4.88
2018-12-31T05:51:17.051Z,4.85
2018-12-31T05:53:45.009Z,4.84
2018-12-31T05:56:12.630Z,4.83
2018-12-31T05:58:40.526Z,4.83
2018-12-31T06:01:08.151Z,4.94
2018-12-31T06:03:36.060Z,4.92
2018-12-31T06:06:04.029Z,4.92
2018-12-31T06:08:32.015Z,4.92
2018-12-31T06:10:59.968Z,4.88
2018-12-31T06:13:27.940Z,4.82
2018-12-31T06:15:57.179Z,4.76
2018-12-31T06:18:25.004Z,4.79
2018-12-31T06:20:52.625Z,4.84
2018-12-31T06:23:20.258Z,4.87
2018-12-31T06:25:48.199Z,4.84
2018-12-31T06:28:16.167Z,4.93
2018-12-31T06:30:43.791Z,4.88
2018-12-31T06:33:11.691Z,4.77
2018-12-31T06:35:39.577Z,4.77
2018-12-31T06:38:07.534Z,4.76
2018-12-31T06:40:35.500Z,4.81
2018-12-31T06:43:03.139Z,4.81
2018-12-31T06:45:30.764Z,4.86
2018-12-31T06:47:58.393Z,4.86
2018-12-31T06:50:26.354Z,4.87
2018-12-31T06:52:53.984Z,4.92
2018-12-31T06:55:21.607Z,4.95
2018-12-31T06:57:49.548Z,4.95
2018-12-31T07:00:17.515Z,4.95
2018-12-31T07:02:45.486Z,5.00
2018-12-31T07:05:13.106Z,5.03
2018-12-31T07:07:40.730Z,5.12
2018-12-31T07:10:08.353Z,5.05
2018-12-31T07:12:36.235Z,5.08
2018-12-31T07:15:04.224Z,5.10
2018-12-31T07:17:32.174Z,5.20
2018-12-31T07:20:00.163Z,5.15
2018-12-31T07:22:27.779Z,5.17
2018-12-31T07:24:55.676Z,5.14
2018-12-31T07:27:23.670Z,5.14
2018-12-31T07:29:51.307Z,5.25
2018-12-31T07:32:18.938Z,5.28
2018-12-31T07:34:46.554Z,5.25
2018-12-31T07:37:14.189Z,5.35
2018-12-31T07:39:42.060Z,5.28
2018-12-31T07:42:10.048Z,5.33
2018-12-31T07:44:37.667Z,5.31
2018-12-31T07:47:05.294Z,5.33
2018-12-31T07:49:33.240Z,5.37
2018-12-31T07:52:01.193Z,5.37
2018-12-31T07:54:28.825Z,5.39
2018-12-31T07:56:56.719Z,5.39
2018-12-31T07:59:24.356Z,5.33
2018-12-31T08:01:52.269Z,5.32
2018-12-31T08:04:20.227Z,5.34
2018-12-31T08:06:48.199Z,5.33
2018-12-31T08:09:16.162Z,5.34
2018-12-31T08:11:44.126Z,5.39
2018-12-31T08:14:12.114Z,5.40
2018-12-31T08:16:39.753Z,5.40
2018-12-31T08:19:07.382Z,5.40
2018-12-31T08:21:35.292Z,5.41
2018-12-31T08:24:03.272Z,5.41
2018-12-31T08:26:31.232Z,5.47
2018-12-31T08:28:59.209Z,5.51
2018-12-31T08:31:27.173Z,5.56
2018-12-31T08:33:55.140Z,5.55
2018-12-31T08:36:22.764Z,5.64
2018-12-31T08:38:50.475Z,5.61
2018-12-31T08:41:18.433Z,5.57
2018-12-31T08:43:46.071Z,5.74
2018-12-31T08:46:13.692Z,5.79
2018-12-31T08:48:41.329Z,5.79
2018-12-31T08:51:08.953Z,5.90
2018-12-31T08:53:36.851Z,5.97
2018-12-31T08:56:04.477Z,5.92
2018-12-31T08:58:32.190Z,5.90
2018-12-31T09:00:59.818Z,5.89
2018-12-31T09:03:27.804Z,5.84
2018-12-31T09:05:56.079Z,5.90
2018-12-31T09:08:24.058Z,5.92
2018-12-31T09:10:51.694Z,5.92
2018-12-31T09:13:19.325Z,5.93
2018-12-31T09:15:46.947Z,6.01
2018-12-31T09:18:14.910Z,6.10
2018-12-31T09:20:42.876Z,6.08
2018-12-31T09:23:10.507Z,6.13
2018-12-31T09:25:38.409Z,6.26
2018-12-31T09:28:06.042Z,6.21
2018-12-31T09:30:33.933Z,6.36
2018-12-31T09:33:01.573Z,6.44
2018-12-31T09:35:29.195Z,6.34
2018-12-31T09:37:56.827Z,6.34
2018-12-31T09:40:24.468Z,6.38
2018-12-31T09:42:52.452Z,6.44
2018-12-31T09:45:20.440Z,6.40
2018-12-31T09:47:48.394Z,6.38
2018-12-31T09:50:16.370Z,6.40
2018-12-31T09:52:44.333Z,6.39
2018-12-31T09:55:11.967Z,6.34
2018-12-31T09:57:39.868Z,6.36
2018-12-31T10:00:07.831Z,6.41
2018-12-31T10:02:35.831Z,6.42
2018-12-31T10:05:03.448Z,6.50
2018-12-31T10:07:31.361Z,6.53
2018-12-31T10:09:59.300Z,6.51
2018-12-31T10:12:26.945Z,6.58
2018-12-31T10:14:54.646Z,6.64
2018-12-31T10:17:22.603Z,6.69
2018-12-31T10:19:50.565Z,6.69
2018-12-31T10:22:18.197Z,6.72
2018-12-31T10:24:45.834Z,6.71
2018-12-31T10:27:13.757Z,6.80
2018-12-31T10:29:41.743Z,6.81
2018-12-31T10:32:09.370Z,6.89
2018-12-31T10:34:36.999Z,6.77
2018-12-31T10:37:04.920Z,6.86
2018-12-31T10:39:32.561Z,6.79
2018-12-31T10:42:00.267Z,6.70
2018-12-31T10:44:27.895Z,6.81
2018-12-31T10:46:55.875Z,6.77
2018-12-31T10:49:23.843Z,6.88
2018-12-31T10:51:51.819Z,6.88
2018-12-31T10:54:19.495Z,6.88
2018-12-31T10:56:47.445Z,6.88
2018-12-31T10:59:15.416Z,6.89
2018-12-31T11:01:43.383Z,7.01
2018-12-31T11:04:11.023Z,7.00
2018-12-31T11:06:38.913Z,7.04
2018-12-31T11:09:06.556Z,6.99
2018-12-31T11:11:34.470Z,7.06
2018-12-31T11:14:02.418Z,7.00
2018-12-31T11:16:30.384Z,7.03
2018-12-31T11:18:58.392Z,7.06
2018-12-31T11:21:26.019Z,7.19
2018-12-31T11:23:53.649Z,7.03
2018-12-31T11:26:21.564Z,7.05
2018-12-31T11:28:49.515Z,7.06
2018-12-31T11:31:17.147Z,6.96
2018-12-31T11:33:45.051Z,6.94
2018-12-31T11:36:13.021Z,6.99
2018-12-31T11:38:40.984Z,7.01
2018-12-31T11:41:08.955Z,7.07
2018-12-31T11:43:36.580Z,6.95
2018-12-31T11:46:04.483Z,7.03
2018-12-31T11:48:32.470Z,6.97
2018-12-31T11:51:00.127Z,7.12
2018-12-31T11:53:28.087Z,7.12
2018-12-31T11:55:56.056Z,7.10
2018-12-31T11:58:24.030Z,7.13
2018-12-31T12:00:51.992Z,7.14
2018-12-31T12:03:19.966Z,7.05
2018-12-31T12:05:47.935Z,7.09
2018-12-31T12:08:15.800Z,7.10
2018-12-31T12:10:43.436Z,7.11
2018-12-31T12:13:11.331Z,7.18
2018-12-31T12:15:39.298Z,7.05
2018-12-31T12:18:06.925Z,7.12
2018-12-31T12:20:34.551Z,7.14
2018-12-31T12:23:02.492Z,7.03
2018-12-31T12:25:30.464Z,7.06
2018-12-31T12:27:58.433Z,7.12
2018-12-31T12:30:26.613Z,7.08
2018-12-31T12:32:54.597Z,7.14
2018-12-31T12:35:22.230Z,7.14
2018-12-31T12:37:49.864Z,7.13
2018-12-31T12:40:17.518Z,7.07
2018-12-31T12:42:45.111Z,7.10
2018-12-31T12:45:12.735Z,7.13
2018-12-31T12:47:40.654Z,7.21
2018-12-31T12:50:08.640Z,7.19
2018-12-31T12:52:36.264Z,7.19
2018-12-31T12:55:04.154Z,7.21
2018-12-31T12:57:32.124Z,7.23
2018-12-31T13:00:00.174Z,7.30
2018-12-31T13:02:28.065Z,7.19
2018-12-31T13:05:03.391Z,7.27
2018-12-31T13:07:25.537Z,7.27
2018-12-31T13:09:53.608Z,7.19
2018-12-31T13:12:21.580Z,7.18
2018-12-31T13:14:49.552Z,7.16
2018-12-31T13:17:17.252Z,7.16
2018-12-31T13:19:44.879Z,7.18
2018-12-31T13:22:12.913Z,7.13
2018-12-31T13:24:40.819Z,7.15
2018-12-31T13:27:08.441Z,7.12
2018-12-31T13:29:36.361Z,7.14
2018-12-31T13:32:03.986Z,7.12
2018-12-31T13:34:31.876Z,7.18
2018-12-31T13:36:59.682Z,7.19
2018-12-31T13:39:27.306Z,7.16
2018-12-31T13:41:55.269Z,7.16
2018-12-31T13:44:23.244Z,7.15
2018-12-31T13:46:50.871Z,7.18
2018-12-31T13:49:19.175Z,7.20
2018-12-31T13:51:46.798Z,7.17
2018-12-31T13:54:14.421Z,7.16
2018-12-31T13:56:42.367Z,7.24
2018-12-31T13:59:10.343Z,7.30
2018-12-31T14:01:38.330Z,7.19
2018-12-31T14:04:06.284Z,7.17
2018-12-31T14:06:34.246Z,7.24
2018-12-31T14:09:02.215Z,7.22
2018-12-31T14:11:30.188Z,7.08
2018-12-31T14:13:58.156Z,7.10
2018-12-31T14:16:25.970Z,7.12
2018-12-31T14:18:53.891Z,7.12
2018-12-31T14:37:42.844Z,8.35
2018-12-31T14:40:11.290Z,9.14
2018-12-31T14:42:40.364Z,8.95
2018-12-31T14:45:09.386Z,8.53
2018-12-31T14:47:39.036Z,8.14
2018-12-31T14:50:07.396Z,7.90
2018-12-31T14:52:37.218Z,8.00
2018-12-31T14:55:06.404Z,7.89
2018-12-31T14:57:34.739Z,7.84
2018-12-31T15:00:03.343Z,7.84
2018-12-31T15:02:31.709Z,7.86
2018-12-31T15:05:00.432Z,7.87
2018-12-31T15:07:28.868Z,7.85
2018-12-31T15:09:58.760Z,8.05
2018-12-31T15:12:28.636Z,7.78
2018-12-31T15:14:57.006Z,7.87
2018-12-31T15:17:26.058Z,7.80
2018-12-31T15:19:54.794Z,7.63
2018-12-31T15:22:29.056Z,7.68
2018-12-31T15:30:04.733Z,9.49
2018-12-31T15:32:32.811Z,7.84
2018-12-31T15:35:00.422Z,7.22
2018-12-31T15:37:28.334Z,7.08
2018-12-31T15:39:56.128Z,7.08
2018-12-31T15:42:23.757Z,7.08
2018-12-31T15:44:51.731Z,6.95
2018-12-31T15:47:19.706Z,6.97
2018-12-31T15:49:47.672Z,6.96
2018-12-31T15:52:15.641Z,6.88
2018-12-31T15:54:43.612Z,6.81
2018-12-31T15:57:11.581Z,6.82
2018-12-31T15:59:39.213Z,6.84
2018-12-31T16:02:06.840Z,6.83
2018-12-31T16:04:34.781Z,6.77
2018-12-31T16:07:02.843Z,6.80
2018-12-31T16:09:30.714Z,6.79
2018-12-31T16:11:58.684Z,6.84
2018-12-31T16:14:26.652Z,6.79
2018-12-31T16:16:54.289Z,6.81
2018-12-31T16:19:21.916Z,6.95
2018-12-31T16:21:49.542Z,7.06
2018-12-31T16:24:17.513Z,7.23
2018-12-31T16:26:45.194Z,7.22
2018-12-31T16:29:13.053Z,7.10
2018-12-31T16:31:41.008Z,7.13
2018-12-31T16:34:08.913Z,7.21
2018-12-31T16:36:36.546Z,7.20
2018-12-31T16:39:04.292Z,7.21
2018-12-31T16:41:32.273Z,7.26
2018-12-31T16:43:59.937Z,7.26
2018-12-31T16:46:27.907Z,7.23
2018-12-31T16:48:55.976Z,7.14
2018-12-31T16:51:23.599Z,7.19
2018-12-31T16:53:51.503Z,7.07
2018-12-31T16:56:19.479Z,7.10
2018-12-31T16:58:47.445Z,7.09
2018-12-31T17:01:15.517Z,7.11
2018-12-31T17:03:43.221Z,7.22
2018-12-31T17:06:10.845Z,7.18
2018-12-31T17:08:38.483Z,7.25
2018-12-31T17:11:06.368Z,7.12
2018-12-31T17:13:34.068Z,7.13
2018-12-31T17:16:01.974Z,7.21
2018-12-31T17:18:29.871Z,7.21
2018-12-31T17:20:57.842Z,7.19
2018-12-31T17:23:25.546Z,7.15
2018-12-31T17:25:53.170Z,7.15
2018-12-31T17:28:21.131Z,7.12
2018-12-31T17:30:48.754Z,7.14
2018-12-31T17:33:16.666Z,7.07
2018-12-31T17:35:44.633Z,7.05
2018-12-31T17:38:12.603Z,7.04
2018-12-31T17:40:40.572Z,7.20
2018-12-31T17:43:08.541Z,7.18
2018-12-31T17:45:36.160Z,7.09
2018-12-31T17:48:04.079Z,7.13
2018-12-31T17:50:31.701Z,7.18
2018-12-31T17:52:59.339Z,7.07
2018-12-31T17:55:26.962Z,7.03
2018-12-31T17:57:55.137Z,7.04
2018-12-31T18:00:23.103Z,7.07
2018-12-31T18:02:51.093Z,7.03
2018-12-31T18:05:19.055Z,7.09
2018-12-31T18:07:47.013Z,7.05
2018-12-31T18:10:14.979Z,7.02
2018-12-31T18:12:42.949Z,7.14
2018-12-31T18:15:10.917Z,7.04
2018-12-31T18:17:38.895Z,7.05
2018-12-31T18:20:06.876Z,7.03
2018-12-31T18:22:34.834Z,7.04
2018-12-31T18:25:02.635Z,6.93
2018-12-31T18:27:30.568Z,6.94
2018-12-31T18:29:58.193Z,6.92
2018-12-31T18:32:26.092Z,6.84
2018-12-31T18:34:54.060Z,6.86
2018-12-31T18:37:22.033Z,6.87
2018-12-31T18:39:50.023Z,6.88
2018-12-31T18:42:18.672Z,6.80
2018-12-31T18:44:46.760Z,6.90
2018-12-31T18:47:14.732Z,6.89
2018-12-31T18:49:42.371Z,6.91
2018-12-31T18:52:10.672Z,6.91
2018-12-31T18:54:38.642Z,6.91
2018-12-31T18:57:06.291Z,6.91
2018-12-31T18:59:33.912Z,6.94
2018-12-31T19:02:01.836Z,6.90
2018-12-31T19:04:29.463Z,6.88
2018-12-31T19:06:57.087Z,6.96
2018-12-31T19:09:25.049Z,6.95
2018-12-31T19:11:53.011Z,6.97
2018-12-31T19:14:20.716Z,7.10
2018-12-31T19:16:48.626Z,7.00
2018-12-31T19:19:16.899Z,7.07
2018-12-31T19:21:44.868Z,7.10
2018-12-31T19:24:12.501Z,7.04
2018-12-31T19:26:40.402Z,7.03
2018-12-31T19:29:08.367Z,7.09
2018-12-31T19:31:36.355Z,7.07
2018-12-31T19:34:04.167Z,7.12
2018-12-31T19:36:31.801Z,7.14
2018-12-31T19:38:59.438Z,7.10
2018-12-31T19:41:27.056Z,7.10
2018-12-31T19:43:54.686Z,7.15
2018-12-31T19:46:22.648Z,7.05
2018-12-31T19:48:50.601Z,7.18
2018-12-31T19:51:18.567Z,7.09
2018-12-31T19:53:46.200Z,7.11
2018-12-31T19:56:13.831Z,7.08
2018-12-31T19:58:41.768Z,7.26
2018-12-31T20:01:10.037Z,7.20
2018-12-31T20:03:38.010Z,7.14
2018-12-31T20:06:05.974Z,7.11
2018-12-31T20:08:33.944Z,7.22
2018-12-31T20:11:01.910Z,7.13
2018-12-31T20:13:29.885Z,7.17
2018-12-31T20:15:57.846Z,7.11
2018-12-31T20:18:25.478Z,7.16
2018-12-31T20:20:53.378Z,7.16
2018-12-31T20:23:21.350Z,7.10
2018-12-31T20:25:49.417Z,7.08
2018-12-31T20:28:17.389Z,7.03
2018-12-31T20:30:45.357Z,7.10
2018-12-31T20:33:12.994Z,7.07
2018-12-31T20:35:40.888Z,7.15
2018-12-31T20:38:08.857Z,7.20
2018-12-31T20:40:36.826Z,7.12
2018-12-31T20:43:04.796Z,7.13
2018-12-31T20:45:32.870Z,7.24
2018-12-31T20:48:01.863Z,7.27
2018-12-31T20:50:30.055Z,7.16
2018-12-31T20:52:58.012Z,7.22
2018-12-31T20:55:26.841Z,7.18
2018-12-31T20:57:54.971Z,7.14
2018-12-31T21:00:22.949Z,7.30
2018-12-31T21:02:50.925Z,7.23
2018-12-31T21:05:18.875Z,7.18
2018-12-31T21:07:46.847Z,7.14
2018-12-31T21:10:14.817Z,7.19
2018-12-31T21:12:42.891Z,7.25
2018-12-31T21:15:10.865Z,7.14
2018-12-31T21:17:38.833Z,7.09
2018-12-31T21:20:06.467Z,7.10
2018-12-31T21:22:34.363Z,7.08
2018-12-31T21:25:02.344Z,7.06
2018-12-31T21:27:30.504Z,7.00
2018-12-31T21:29:58.481Z,7.08
2018-12-31T21:32:26.096Z,7.09
2018-12-31T21:34:53.739Z,7.06
2018-12-31T21:37:21.668Z,7.05
2018-12-31T21:39:49.653Z,7.06
2018-12-31T21:42:17.277Z,6.97
2018-12-31T21:44:45.265Z,6.97
2018-12-31T21:47:12.889Z,6.94
2018-12-31T21:49:40.520Z,6.90
2018-12-31T21:52:08.462Z,6.92
2018-12-31T21:54:36.434Z,6.91
2018-12-31T21:57:04.503Z,6.93
2018-12-31T21:59:32.473Z,6.91
2018-12-31T22:02:00.436Z,6.89
2018-12-31T22:04:28.072Z,6.93
2018-12-31T22:06:55.986Z,6.95
2018-12-31T22:09:24.246Z,6.95
2018-12-31T22:11:52.193Z,6.91
2018-12-31T22:14:19.829Z,6.93
2018-12-31T22:16:47.744Z,6.94
2018-12-31T22:19:15.781Z,6.93
2018-12-31T22:21:43.344Z,6.97
2018-12-31T22:24:11.567Z,6.94
2018-12-31T22:26:39.528Z,6.94
2018-12-31T22:29:07.488Z,6.95
2018-12-31T22:31:35.466Z,6.95
2018-12-31T22:34:03.109Z,7.01
2018-12-31T22:36:30.992Z,7.04
2018-12-31T22:38:58.958Z,7.01
2018-12-31T22:41:26.587Z,7.00
2018-12-31T22:43:54.492Z,7.03
2018-12-31T22:46:22.462Z,7.14
2018-12-31T22:48:50.434Z,7.11
2018-12-31T22:51:18.454Z,7.14
2018-12-31T22:53:46.692Z,7.14
2018-12-31T22:56:14.648Z,7.25
2018-12-31T22:58:42.614Z,7.25
2018-12-31T23:01:10.581Z,7.25
2018-12-31T23:03:38.552Z,7.27
2018-12-31T23:06:06.179Z,7.25
2018-12-31T23:08:34.084Z,7.30
2018-12-31T23:11:01.790Z,7.31
2018-12-31T23:13:29.717Z,7.30
2018-12-31T23:15:57.690Z,7.25
2018-12-31T23:18:25.989Z,7.40
2018-12-31T23:20:55.357Z,7.32
2018-12-31T23:23:23.163Z,7.38
2018-12-31T23:25:51.098Z,7.41
2018-12-31T23:28:18.730Z,7.46
2018-12-31T23:30:46.651Z,7.51
2018-12-31T23:33:14.807Z,7.46
2018-12-31T23:35:42.458Z,7.54
2018-12-31T23:38:10.084Z,7.47
2018-12-31T23:40:37.998Z,7.50
2018-12-31T23:43:06.555Z,7.67
2018-12-31T23:45:34.496Z,7.56
2018-12-31T23:48:02.422Z,7.57
2018-12-31T23:50:30.063Z,7.66
2018-12-31T23:52:58.051Z,7.70
2018-12-31T23:55:26.044Z,7.66
2018-12-31T23:57:53.994Z,7.61
